createdAt,value
2023-03-23T15:58:20.256Z,17.15
2023-03-23T16:00:48.199Z,23.30
2023-03-23T16:03:19.058Z,15.95
2023-03-23T16:05:46.233Z,21.83
2023-03-23T16:08:12.973Z,15.73
2023-03-23T16:10:39.706Z,18.10
2023-03-23T16:13:07.156Z,19.60
2023-03-23T16:15:34.108Z,19.25
2023-03-23T16:18:00.924Z,21.58
2023-03-23T16:20:29.045Z,30.05
2023-03-23T16:22:56.018Z,27.92
2023-03-23T16:25:22.798Z,23.50
2023-03-23T16:27:52.427Z,18.50
2023-03-23T16:30:19.408Z,29.90
2023-03-23T16:32:47.121Z,21.08
2023-03-23T16:35:14.881Z,22.73
2023-03-23T16:37:52.109Z,23.77
2023-03-23T16:40:37.379Z,27.17
2023-03-23T16:43:08.512Z,22.23
2023-03-23T16:45:37.055Z,22.98
2023-03-23T16:48:04.685Z,27.02
2023-03-23T16:50:31.890Z,27.15
2023-03-23T16:52:59.146Z,21.33
2023-03-23T16:55:27.179Z,28.98
2023-03-23T16:58:05.391Z,17.70
2023-03-23T17:00:41.531Z,25.02
2023-03-23T17:03:08.884Z,19.75
2023-03-23T17:05:36.954Z,32.30
2023-03-23T17:08:04.145Z,25.70
2023-03-23T17:10:31.779Z,25.92
2023-03-23T17:12:58.603Z,34.33
2023-03-23T17:15:25.826Z,21.40
2023-03-23T17:17:53.029Z,17.58
2023-03-23T17:20:19.768Z,26.15
2023-03-23T17:22:46.781Z,33.25
2023-03-23T17:25:14.003Z,23.20
2023-03-23T17:27:41.282Z,18.80
2023-03-23T17:30:08.897Z,38.78
2023-03-23T17:32:36.745Z,22.05
2023-03-23T17:35:05.511Z,31.10
2023-03-23T17:37:32.922Z,27.77
2023-03-23T17:40:00.425Z,33.40
2023-03-23T17:42:28.037Z,29.00
2023-03-23T17:44:55.056Z,24.05
2023-03-23T17:47:22.222Z,33.33
2023-03-23T17:49:48.971Z,47.00
2023-03-23T17:52:15.841Z,29.38
2023-03-23T17:54:42.709Z,24.25
2023-03-23T17:57:10.600Z,22.42
2023-03-23T17:59:37.378Z,37.17
2023-03-23T18:02:04.465Z,19.65
2023-03-23T18:04:31.476Z,17.90
2023-03-23T18:06:58.394Z,21.08
2023-03-23T18:09:25.504Z,13.93
2023-03-23T18:11:52.569Z,19.70
2023-03-23T18:14:19.498Z,12.98
2023-03-23T18:16:46.386Z,15.55
2023-03-23T18:19:13.783Z,22.30
2023-03-23T18:21:40.857Z,22.90
2023-03-23T18:24:08.021Z,20.25
2023-03-23T18:26:35.101Z,25.42
2023-03-23T18:29:01.827Z,16.65
2023-03-23T18:31:28.991Z,24.60
2023-03-23T18:33:56.376Z,19.08
2023-03-23T18:36:25.161Z,17.52
2023-03-23T18:38:54.221Z,17.35
2023-03-23T18:41:20.996Z,16.00
2023-03-23T18:43:47.950Z,12.13
2023-03-23T18:46:14.664Z,13.68
2023-03-23T18:48:41.436Z,14.90
2023-03-23T18:51:08.988Z,10.55
2023-03-23T18:53:36.033Z,13.10
2023-03-23T18:56:07.468Z,13.82
2023-03-23T18:58:34.209Z,20.50
2023-03-23T19:01:08.384Z,13.57
2023-03-23T19:03:36.204Z,11.98
2023-03-23T19:06:04.527Z,8.35
2023-03-23T19:08:32.072Z,11.80
2023-03-23T19:11:00.982Z,8.60
2023-03-23T19:13:28.865Z,13.75
2023-03-23T19:15:55.869Z,15.80
2023-03-23T19:18:23.160Z,8.27
2023-03-23T19:23:23.502Z,8.80
2023-03-23T19:25:50.316Z,14.55
2023-03-23T19:30:47.548Z,12.27
2023-03-23T19:33:14.600Z,11.05
2023-03-23T19:35:41.541Z,8.85
2023-03-23T19:38:08.650Z,8.27
2023-03-23T19:40:42.086Z,10.98
2023-03-23T19:43:09.843Z,8.45
2023-03-23T19:45:37.037Z,9.65
2023-03-23T19:48:04.200Z,13.88
2023-03-23T19:50:33.362Z,9.20
2023-03-23T19:53:00.699Z,8.55
2023-03-23T19:55:27.689Z,6.80
2023-03-23T19:57:55.074Z,10.20
2023-03-23T20:00:24.149Z,10.05
2023-03-23T20:02:52.051Z,11.95
2023-03-23T20:05:18.984Z,13.70
2023-03-23T20:07:51.402Z,7.40
2023-03-23T20:10:19.376Z,14.75
2023-03-23T20:12:46.731Z,11.18
2023-03-23T20:15:13.701Z,12.32
2023-03-23T20:17:40.683Z,12.95
2023-03-23T20:20:10.266Z,7.35
2023-03-23T20:22:37.858Z,13.50
2023-03-23T20:25:05.073Z,14.45
2023-03-23T20:27:32.457Z,14.98
2023-03-23T20:29:59.724Z,13.55
2023-03-23T20:32:29.096Z,8.35
2023-03-23T20:34:57.032Z,9.85
2023-03-23T20:37:24.584Z,9.05
2023-03-23T20:39:51.374Z,14.90
2023-03-23T20:42:18.257Z,16.65
2023-03-23T20:44:45.184Z,16.73
2023-03-23T20:47:12.219Z,7.15
2023-03-23T20:49:40.392Z,8.27
2023-03-23T20:52:08.313Z,15.52
2023-03-23T20:54:35.773Z,13.45
2023-03-23T20:57:02.785Z,13.27
2023-03-23T20:59:29.709Z,12.02
2023-03-23T21:01:56.739Z,10.70
2023-03-23T21:04:27.612Z,12.57
2023-03-23T21:06:54.853Z,13.63
2023-03-23T21:09:22.273Z,19.77
2023-03-23T21:11:49.353Z,8.57
2023-03-23T21:14:16.446Z,9.57
2023-03-23T21:16:43.249Z,11.73
2023-03-23T21:19:10.465Z,10.98
2023-03-23T21:21:55.528Z,10.07
2023-03-23T21:24:26.576Z,12.40
2023-03-23T21:26:54.344Z,14.70
2023-03-23T21:29:24.096Z,8.85
2023-03-23T21:32:00.909Z,10.35
2023-03-23T21:34:31.987Z,10.45
2023-03-23T21:36:58.913Z,8.65
2023-03-23T21:39:26.307Z,10.30
2023-03-23T21:41:53.078Z,11.48
2023-03-23T21:44:19.948Z,9.80
2023-03-23T21:46:46.743Z,8.90
2023-03-23T21:49:16.414Z,25.58
2023-03-23T21:51:43.566Z,10.88
2023-03-23T21:54:10.887Z,11.32
2023-03-23T21:56:38.042Z,11.10
2023-03-23T21:59:07.634Z,10.73
2023-03-23T22:01:37.072Z,13.20
2023-03-23T22:04:05.285Z,13.88
2023-03-23T22:06:34.465Z,9.90
2023-03-23T22:09:04.360Z,14.50
2023-03-23T22:11:32.713Z,13.70
2023-03-23T22:14:00.121Z,12.63
2023-03-23T22:16:27.113Z,14.85
2023-03-23T22:18:55.467Z,9.82
2023-03-23T22:21:26.901Z,10.88
2023-03-23T22:23:55.411Z,10.68
2023-03-23T22:26:22.295Z,18.70
2023-03-23T22:28:51.021Z,13.13
2023-03-23T22:31:22.193Z,13.20
2023-03-23T22:33:49.865Z,12.02
2023-03-23T22:36:17.106Z,11.40
2023-03-23T22:38:45.333Z,12.15
2023-03-23T22:41:15.599Z,11.98
2023-03-23T22:43:42.352Z,11.60
2023-03-23T22:46:09.159Z,10.98
2023-03-23T22:48:36.088Z,15.90
2023-03-23T22:51:03.800Z,13.55
2023-03-23T22:53:30.790Z,14.57
2023-03-23T22:55:57.792Z,11.65
2023-03-23T22:58:25.977Z,11.80
2023-03-23T23:00:58.582Z,12.15
2023-03-23T23:03:26.829Z,12.38
2023-03-23T23:05:55.139Z,12.27
2023-03-23T23:08:23.301Z,12.85
2023-03-23T23:10:51.132Z,12.18
2023-03-23T23:13:18.060Z,12.38
2023-03-23T23:15:47.490Z,12.50
2023-03-23T23:18:14.668Z,13.65
2023-03-23T23:20:42.264Z,16.88
2023-03-23T23:23:09.954Z,16.83
2023-03-23T23:25:36.899Z,12.95
2023-03-23T23:28:05.369Z,13.18
2023-03-23T23:30:32.700Z,13.13
2023-03-23T23:32:59.554Z,14.65
2023-03-23T23:35:26.452Z,21.10
2023-03-23T23:37:53.702Z,13.55
2023-03-23T23:40:20.881Z,22.95
2023-03-23T23:42:49.014Z,12.90
2023-03-23T23:45:15.978Z,15.38
2023-03-23T23:47:42.915Z,12.20
2023-03-23T23:50:11.512Z,15.40
2023-03-23T23:52:38.785Z,15.18
2023-03-23T23:55:07.535Z,15.07
2023-03-23T23:57:34.616Z,15.13
